首页
METAR-TAF:

METAR-TAF

机场 :

溫哥華國際機場

溫哥華, 不列颠哥伦比亚, 加拿大

纬度: 49-11N, 经度: 123-10W, 海拔: 3米

当前天气观测

该预报发布于32分钟前的16:00 UTC
风速6节,风向
温度 1°C
湿度 86%
气压 1024 hPa
能見度: 48.3公里
散云层高于25000英尺

METAR: CYVR 201600Z 10006KT 30SM SCT250 01/M01 A3023 RMK CS3 SLP237

时间: 08:32 (16:32 UTC)

预报

该预报发布于1小时和54分钟前的14:38 UTC
预报有效从20日的 15点(UTC)到 21日的 18点(UTC)
风速5节,风向北转东北
能見度: 10公里
天空无云
成为
从 20日的 15点(UTC)到 20日的 17点(UTC)
风速5节,风向北转西北
从 20日的 1900点(UTC)
风速8节,风向西转西北
能見度: 10公里
少量云层高于10000英尺
成为
从 21日的 04点(UTC)到 21日的 06点(UTC)
风速6节,风向东转东北

TAF: CYVR 201438Z 2015/2118 02005KT P6SM SKC BECMG 2015/2017 33005KT FM201900 29008KT P6SM FEW100 BECMG 2104/2106 07006KT RMK NXT FCST BY 201800Z

超过4000个机场的气象观测和天气预报(METAR&TAF报告)。

可查询的气象台以黄色和红色小点在地图上表示。

将鼠标移到小点上方,可查看气象台名称。

然后点击查看天气观测和预报。

如需切换地图:点击带黑十字的绿色按钮放大地图;点击带横线的绿色按钮缩小地图;或者点击绿色箭头查看邻近地区的地图。


METAR-TAF: